Terminal Aerodrome Forecast
Issued by NWS

Home | Current Version | Previous Version | Text Only | Print | Product List | Glossary On
Versions: 1 2 3 4 5 6 7 8 9 10 11 12 13 14 15 16 17 18 19 20 21 22 23 24 25 26 27 28
184
FTUS44 KSJT 290558
TAFSOA
TAF
KSOA 290558Z 2906/3006 32011KT P6SM VCSH SCT030 BKN100
     FM290630 29007KT P6SM BKN250
     FM291500 24011KT P6SM SKC=

USA.gov is the U.S. government's official web portal to all federal, state and local government web resources and services.